Extreme weather reports worldwide

Rain

Station
 
Location
 
Name
 
Wind
Knots
Gust
Knots
Vis
SM
Temp/Dew
C
Baro
inHg
METAR
 
RKPM Mosulpo, KR Mosulpo Airbase Heliport 28 41 2.98 13/12 29.89 RKPM 290352Z 36028G041KT 4800 -RA BR BKN005 OVC030 13/12 A2989 RMK CIG005
WKJ RJCW Wakkanai, JP Wakkanai Airport 24 34 1.43 12/11 29.44 RJCW 290409Z 22024G34KT 2300 R08/2000N -SHRA BR FEW006 BKN008 BKN012 12/11 Q0997 RMK 1ST006 5ST008 6ST012 A2946
TKS RJOS Tokushima, JP Tokushima Airport/JMSDF Air Base 22 32 3.73 20/19 29.76 RJOS 290400Z 16022G32KT 6000 -SHRA FEW008 BKN012 BKN025 20/19 Q1008
TOY RJNT Toyama, JP Toyama Airport 20 31 6.21 23/12 29.73 RJNT 290401Z 20020G31KT 160V230 9999 -SHRA FEW020 SCT060 BKN100 23/12 Q1007 RMK 1CU020 3SC060 6AC100 A2974
RJOP Komatsushima, JP JMSDF Komatsushima Heliport 20 30 3.11 21/19 29.79 RJOP 290336Z 17020G30KT 5000 -SHRA BR FEW008 BKN015 BKN030 21/19 Q1009 RMK 2ST008 5CU015 7CU030 A2980

Station
 
Location
 
Name
 
Wind
Knots
Gust
Knots
Vis
SM
Temp/Dew
C
Baro
inHg
METAR
 
KIX RJBB Osaka, JP Kansai International Airport 18 28 6.21 22/17 29.79 RJBB 290403Z 17018G28KT 9999 -SHRA FEW015 SCT040 BKN090 22/17 Q1009 RMK 1CU015 4CU040 7AC090 A2980
FKS RJSF Sukagawa, JP Fukushima Airport 16 26 6.21 16/13 29.91 RJSF 290400Z 18016G26KT 150V210 9999 -SHRA FEW015 SCT025 BKN030 16/13 Q1013
RJNY Yaizu, JP JASDF Shizuhama Air Base 16 26 0.93 19/17 29.97 RJNY 290346Z 19016G26KT 1500 R27/0900VP1800D +SHRA BR FEW010 SCT020 BKN030 19/17 Q1015 RMK 1CU010 3CU020 7CU030 A2998 R1300
ENQR 32 8/6 30.00 ENQR 290420Z AUTO 15032KT 9999NDV -RA OVC014/// 08/06 Q1016 W11/S5
FBU ENFB Oslo, NO Oslo, Fornebu Airport 32 8/6 30.00 ENFB 290420Z AUTO 15032KT 9999NDV -RA BKN013/// 08/06 Q1016 W///S5
ENHM 31 8/8 29.97 ENHM 290420Z AUTO 14031KT 2900NDV -RA BR FEW008/// SCT013/// BKN016/// 08/08 Q1015 W10/S/
ENSE 30 9/6 30.03 ENSE 290420Z AUTO 17030KT 9999NDV -SHRA OVC013/// 09/06 Q1017 W///S/
ENQA NO Troll A Platform 30 7/4 30.06 ENQA 290420Z AUTO 15030KT 9999NDV -RA OVC018/// 07/04 Q1018 W15/S4
ENGC 29 6.21 8/6 30.00 ENGC 290420Z 17029KT 9999 -SHRA BKN014 BKN022 08/06 Q1016 W09/S5
CZL DABC Constantine, DZ Mohamed Boudiaf International Airport 23 4.97 8/6 29.88 DABC 290400Z 35023KT 8000 RA SCT020 FEW030CB BKN040 08/06 Q1012
SHM RJBD Shirahama, JP Nanki Shirahama Airport 21 3.11 20/19 29.85 RJBD 290400Z 15021KT 5000 -SHRA BR FEW006 BKN020 BKN050 20/19 Q1011
NGO RJGG Tokoname, JP Chubu Centrair International Airport 20 6.21 21/18 29.88 RJGG 290400Z 15020KT 9999 -SHRA FEW020 SCT030 BKN100 21/18 Q1012 NOSIG
AOJ RJSA Aomori, JP Aomori Airport 19 6.21 15/12 29.70 RJSA 290400Z 22019KT 9999 -SHRA FEW020 SCT050 BKN070 15/12 Q1006
HKD RJCH Hakodate, JP Hakodate Airport 19 6.21 16/14 29.68 RJCH 290400Z 23019KT 9999 -SHRA FEW008 BKN020 BKN040 16/14 Q1005
BDA TXKF Hamilton, BM L.F. Wade International International Airport 19 6.21 23/21 29.94 TXKF 290355Z 22019KT 9999 R30///// -RA FEW028 FEW060 OVC160 23/21 Q1014
KMQ RJNK Kanazawa, JP Komatsu Airport 17 6.21 22/15 29.70 RJNK 290400Z 20017KT 9999 -SHRA FEW020 SCT030 BKN060 22/15 Q1006
CTS RJCC Chitose / Tomakomai, JP New Chitose Airport 17 4.97 13/11 29.65 RJCC 290400Z 19017KT 8000 -SHRA FEW005 BKN040 13/11 Q1004 RMK 1ST005 7CU040 A2967
ENHE 17 6.21 7/6 30.09 ENHE 290420Z 23017KT 9999 -RA BKN009 07/06 Q1019 W///S5
BOJ LBBG Burgas, BG Burgas Airport 16 6.21 6/4 30.03 LBBG 290430Z AUTO 03016KT 9999 -SHRA BKN048/// 06/04 Q1017 NOSIG
SHA ZSSS Shanghai, CN Shanghai Hongqiao International Airport 16 4.97 13/12 30.12 ZSSS 290400Z 36008MPS 8000 -RA BKN009 13/12 Q1020 NOSIG
PVG ZSPD Shanghai, CN Shanghai Pudong International Airport 16 2.17 14/13 30.09 ZSPD 290400Z 36008MPS 3500 -RA BR BKN008 14/13 Q1019 NOSIG
CSX ZGHA Changsha, CN Changsha Huanghua International Airport 16 5.59 11/8 30.15 ZGHA 290400Z 33008MPS 9000 -RA OVC020 11/08 Q1021 NOSIG
VAR LBWN Varna, BG Varna Airport 15 6.21 5/4 30.06 LBWN 290430Z AUTO 36015KT 9999 -RA SCT039/// OVC047/// 05/04 Q1018 NOSIG
AKJ RJEC Asahikawa / Hokkaidō, JP Asahikawa Airport 15 4.97 11/9 29.59 RJEC 290400Z 19015KT 8000 -SHRA FEW006 SCT015 BKN045 11/09 Q1002
LRFT 14 4.97 3/2 30.18 LRFT 290400Z 01014KT 8000 -RA SCT010 OVC050 03/02 Q1022 BLU BLU
LXS LGLM Limnos Island, GR Limnos Airport 14 6.21 10/8 29.94 LGLM 290420Z 04014KT 9999 -RA FEW010 BKN025 10/08 Q1014
OKD RJCO Sapporo, JP Okadama Airport 13 4.35 13/12 29.65 RJCO 290400Z 16013KT 7000 -SHRA FEW010 BKN045 BKN060 13/12 Q1004
MMJ RJAF Matsumoto, JP Matsumoto Airport 13 6.21 15/13 29.91 RJAF 290400Z 15013KT 9999 -SHRA FEW015 BKN040 BKN050 15/13 Q1013
SGD EKSB Sønderborg, DK Sønderborg Airport 13 3.73 6/4 30.03 EKSB 290420Z AUTO 11013KT 6000 -RA OVC016/// 06/04 Q1017
TNE RJFG Tanegashima, JP New Tanegashima Airport 13 0.93 22/22 29.85 RJFG 290406Z 28013KT 1500 R31/0650VP2000U -SHRA BR FEW001 SCT002 BKN003 22/22 Q1011 RMK 1ST001 3ST002 5ST003 A2987
LRTZ RO Tuzla Romania Airfield 12 2.49 5/5 30.12 LRTZ 290400Z 36012KT 4000 RA BR BKN004 OVC020 05/05 Q1020 YLO YLO
TJH RJBT Toyooka, JP Konotori Tajima Airport 12 6.21 20/17 29.73 RJBT 290400Z 18012KT 140V210 9999 -SHRA FEW005 SCT020 BKN030 20/17 Q1007
AQJ OJAQ Aqaba, JO Aqaba King Hussein International Airport 12 3.11 17/9 29.79 OJAQ 290400Z 34012KT 5000 TSRA SCT030CB SCT035 SCT100 17/09 Q1009
KIJ RJSN Niigata, JP Niigata Airport 11 6.21 21/11 29.73 RJSN 290400Z 18011KT 9999 -RA FEW050 SCT080 BKN100 21/11 Q1007
HNA RJSI JP Hanamaki Airport 11 6.21 16/12 29.79 RJSI 290400Z 17011KT 9999 -SHRA FEW030 SCT040 BKN100 16/12 Q1009
RJNS 11 6.21 18/18 29.97 RJNS 290400Z 19011KT 9999 SHRA FEW000 SCT005 BKN010 18/18 Q1015
URE EEKE Kuressaare, EE Kuressaare Airport 11 2/0 30.41 EEKE 290420Z AUTO 15011KT 9999NDV -RA FEW014 BKN016 OVC022 02/M00 Q1030
MSQ UMMS Minsk, BY Minsk National Airport 10 5.59 0/0 30.41 UMMS 290400Z 12005MPS 9000 -RASN OVC003 M00/M00 Q1030 NOSIG RMK QBB100
ETM LLER Eilat, IL Ramon Airport 10 4.97 16/13 29.82 LLER 290350Z 36010KT 8000 TSRA FEW050CB 16/13 Q1010 RMK BKN066
KRS ENCN Kjevik, NO Kristiansand Airport 10 6.21 5/3 30.18 ENCN 290420Z AUTO 09010KT 9999 RA VV019 05/03 Q1022
LIPC Cervia, IT Cervia Air Base 10 4.97 6/5 29.97 LIPC 290355Z 27010KT 8000 -RA SCT010 BKN030 06/05 Q1015 RMK OVC VIS MIN 8000 WIND THR11 28009KT WIND THR29 28008KT BLU
HGH ZSHC Hangzhou, CN Hangzhou Xiaoshan International Airport 10 4.97 14/13 30.09 ZSHC 290400Z 36005MPS 320V030 8000 -SHRA BKN008 BKN023 14/13 Q1019 NOSIG
TKQ HTKA Kigoma, TZ Kigoma Airport 10 6.21 20/20 29.88 HTKA 290400Z 10010KT 9999 RA FEW018 FEW019CB BKN080 20/20 Q1012 NOSIG
PPG NSTU Pago Pago, AS Pago Pago International Airport 9 4 24/24 29.83 NSTU 290351Z 06009KT 4SM -SHRA FEW008 OVC014TCU 25/25 A2983 RMK TSE51 TCU ALQDS SLP103 T02450245
GOV YPGV Nhulunbuy, AU Gove Airport 9 4.97 25/24 29.65 YPGV 290415Z 34009KT 8000 -TSRA FEW010 SCT024CB BKN065 25/24 Q1004